地図

経路データ

SID SEASON NUMBER BASIN SUBBASIN NAME ISO_TIME NATURE LAT LON WMO_WIND WMO_PRES WMO_AGENCY TRACK_TYPE DIST2LAND LANDFALL IFLAG USA_AGENCY USA_ATCF_ID USA_LAT USA_LON USA_RECORD USA_STATUS USA_WIND USA_PRES USA_SSHS USA_R34_NE USA_R34_SE USA_R34_SW USA_R34_NW USA_R50_NE USA_R50_SE USA_R50_SW USA_R50_NW USA_R64_NE USA_R64_SE USA_R64_SW USA_R64_NW USA_POCI USA_ROCI USA_RMW USA_EYE TOKYO_LAT TOKYO_LON TOKYO_GRADE TOKYO_WIND TOKYO_PRES TOKYO_R50_DIR TOKYO_R50_LONG TOKYO_R50_SHORT TOKYO_R30_DIR TOKYO_R30_LONG TOKYO_R30_SHORT TOKYO_LAND CMA_LAT CMA_LON CMA_CAT CMA_WIND CMA_PRES HKO_LAT HKO_LON HKO_CAT HKO_WIND HKO_PRES NEWDELHI_LAT NEWDELHI_LON NEWDELHI_GRADE NEWDELHI_WIND NEWDELHI_PRES NEWDELHI_CI NEWDELHI_DP NEWDELHI_POCI REUNION_LAT REUNION_LON REUNION_TYPE REUNION_WIND REUNION_PRES REUNION_TNUM REUNION_CI REUNION_RMW REUNION_R34_NE REUNION_R34_SE REUNION_R34_SW REUNION_R34_NW REUNION_R50_NE REUNION_R50_SE REUNION_R50_SW REUNION_R50_NW REUNION_R64_NE REUNION_R64_SE REUNION_R64_SW REUNION_R64_NW BOM_LAT BOM_LON BOM_TYPE BOM_WIND BOM_PRES BOM_TNUM BOM_CI BOM_RMW BOM_R34_NE BOM_R34_SE BOM_R34_SW BOM_R34_NW BOM_R50_NE BOM_R50_SE BOM_R50_SW BOM_R50_NW BOM_R64_NE BOM_R64_SE BOM_R64_SW BOM_R64_NW BOM_ROCI BOM_POCI BOM_EYE BOM_POS_METHOD BOM_PRES_METHOD NADI_LAT NADI_LON NADI_CAT NADI_WIND NADI_PRES WELLINGTON_LAT WELLINGTON_LON WELLINGTON_WIND WELLINGTON_PRES DS824_LAT DS824_LON DS824_STAGE DS824_WIND DS824_PRES TD9636_LAT TD9636_LON TD9636_STAGE TD9636_WIND TD9636_PRES TD9635_LAT TD9635_LON TD9635_WIND TD9635_PRES TD9635_ROCI NEUMANN_LAT NEUMANN_LON NEUMANN_CLASS NEUMANN_WIND NEUMANN_PRES MLC_LAT MLC_LON MLC_CLASS MLC_WIND MLC_PRES USA_GUST BOM_GUST BOM_GUST_PER REUNION_GUST REUNION_GUST_PER USA_SEAHGT USA_SEARAD_NE USA_SEARAD_SE USA_SEARAD_SW USA_SEARAD_NW STORM_SPEED STORM_DIR
1964307N09072 1964 103 NI AS NOT_NAMED 1964-11-01 18:00:00 TS 9.30000 72.4000 main 418 418 O________O____ jtwc_io IO151964 9.30000 72.4000 -1 9.30000 72.4000 TC 3 298
1964307N09072 1964 103 NI AS NOT_NAMED 1964-11-01 21:00:00 TS 9.36499 72.2775 main 424 424 P________P____ IO151964 9.36499 72.2775 -1 9.36499 72.2775 TC 3 289
1964307N09072 1964 103 NI AS NOT_NAMED 1964-11-02 00:00:00 TS 9.40000 72.1000 main 444 444 O________O____ jtwc_io IO151964 9.40000 72.1000 -1 9.40000 72.1000 TC 25 4 274
1964307N09072 1964 103 NI AS NOT_NAMED 1964-11-02 03:00:00 TS 9.39333 71.8266 main 472 472 P________PO___ IO151964 9.39250 71.8299 -1 9.39250 71.8299 TC 25 9.40000 71.8000 1 6 271
1964307N09072 1964 103 NI AS NOT_NAMED 1964-11-02 06:00:00 TS 9.41190 71.4928 main 498 498 O________OP___ jtwc_io IO151964 9.40000 71.5000 -1 9.40000 71.5000 TC 25 9.45952 71.4642 1 7 279
1964307N09072 1964 103 NI AS NOT_NAMED 1964-11-02 09:00:00 TS 9.50410 71.1535 main 519 519 P________PP___ IO151964 9.49996 71.1651 -1 9.49996 71.1651 TC 25 9.51511 71.1226 1 7 284
1964307N09072 1964 103 NI AS NOT_NAMED 1964-11-02 12:00:00 TS 9.58772 70.7899 main 550 550 O________OP___ jtwc_io IO151964 9.60000 70.8000 -1 9.60000 70.8000 TC 25 9.56316 70.7698 1 7 278
1964307N09072 1964 103 NI AS NOT_NAMED 1964-11-02 15:00:00 TS 9.60499 70.4050 main 589 589 P________PO___ IO151964 9.60748 70.4074 -1 9.60748 70.4074 TC 25 9.60000 70.4000 1 8 272
1964307N09072 1964 103 NI AS NOT_NAMED 1964-11-02 18:00:00 TS 9.60804 70.0039 main 628 628 O________OP___ jtwc_io IO151964 9.60000 70.0000 -1 9.60000 70.0000 TC 25 9.62412 70.0118 1 8 273
1964307N09072 1964 103 NI AS NOT_NAMED 1964-11-02 21:00:00 TS 9.64254 69.5966 main 667 667 P________PP___ IO151964 9.64250 69.5850 -1 9.64250 69.5850 TC 25 9.64260 69.6199 1 8 276
1964307N09072 1964 103 NI AS NOT_NAMED 1964-11-03 00:00:00 TS 9.68825 69.2143 main 701 701 O________OP___ jtwc_io IO151964 9.70000 69.2000 -1 9.70000 69.2000 TC 25 9.66476 69.2430 1 7 277
1964307N09072 1964 103 NI AS NOT_NAMED 1964-11-03 03:00:00 TS 9.73330 68.8850 main 731 731 P________PO___ IO151964 9.74995 68.8775 -1 9.74995 68.8775 TC 25 9.70000 68.9000 1 6 279
1964307N09072 1964 103 NI AS NOT_NAMED 1964-11-03 06:00:00 TS 9.78817 68.6034 main 755 755 O________OP___ jtwc_io IO151964 9.80000 68.6000 -1 9.80000 68.6000 TC 25 9.76449 68.6100 1 5 282
1964307N09072 1964 103 NI AS NOT_NAMED 1964-11-03 09:00:00 TS 9.84241 68.3417 main 784 779 P________PP___ IO151964 9.84248 68.3350 -1 9.84248 68.3350 TC 25 9.84226 68.3551 1 5 284
1964307N09072 1964 103 NI AS NOT_NAMED 1964-11-03 12:00:00 TS 9.90797 68.1075 main 799 799 O________OP___ jtwc_io IO151964 9.90000 68.1000 -1 9.90000 68.1000 TC 25 9.92391 68.1225 1 5 290
1964307N09072 1964 103 NI AS NOT_NAMED 1964-11-03 15:00:00 TS 10.0050 67.9000 main 815 815 P________PO___ IO151964 10.0075 67.9000 -1 10.0075 67.9000 TC 25 10.0000 67.9000 1 4 293
1964307N09072 1964 103 NI AS NOT_NAMED 1964-11-03 18:00:00 TS 10.0830 67.6919 main 831 831 O________OP___ jtwc_io IO151964 10.1000 67.7000 -1 10.1000 67.7000 TC 25 10.0490 67.6758 1 4 282
1964307N09072 1964 103 NI AS NOT_NAMED 1964-11-03 21:00:00 TS 10.0974 67.4574 main 851 851 P________PP___ IO151964 10.1000 67.4574 -1 10.1000 67.4574 TC 25 10.0923 67.4573 1 5 274
1964307N09072 1964 103 NI AS NOT_NAMED 1964-11-04 00:00:00 TS 10.1132 67.2117 main 882 882 O________OP___ jtwc_io IO151964 10.1000 67.2000 -1 10.1000 67.2000 TC 25 10.1396 67.2352 1 5 281
1964307N09072 1964 103 NI AS NOT_NAMED 1964-11-04 03:00:00 TS 10.1900 66.9667 main 898 898 P________PO___ IO151964 10.1850 66.9500 -1 10.1850 66.9500 TC 25 10.2000 67.0000 1 5 290
1964307N09072 1964 103 NI AS NOT_NAMED 1964-11-04 06:00:00 TS 10.2966 66.7104 main 926 926 O________OP___ jtwc_io IO151964 10.3000 66.7000 -1 10.3000 66.7000 TC 25 10.2897 66.7313 1 6 292
1964307N09072 1964 103 NI AS NOT_NAMED 1964-11-04 09:00:00 TS 10.3975 66.4500 main 943 943 P________PP___ IO151964 10.4000 66.4500 -1 10.4000 66.4500 TC 30 10.3926 66.4501 1 6 292
1964307N09072 1964 103 NI AS NOT_NAMED 1964-11-04 12:00:00 TS 10.4997 66.1896 main 971 971 O________OP___ jtwc_io IO151964 10.5000 66.2000 -1 10.5000 66.2000 TC 35 10.4991 66.1688 1 6 292
1964307N09072 1964 103 NI AS NOT_NAMED 1964-11-04 15:00:00 TS 10.6050 65.9283 main 1000 1000 P________PO___ IO151964 10.6075 65.9425 -1 10.6075 65.9425 TC 35 10.6000 65.9000 2 5 291
1964307N09072 1964 103 NI AS NOT_NAMED 1964-11-04 18:00:00 TS 10.6899 65.6922 main 1016 1016 O________OP___ jtwc_io IO151964 10.7000 65.7000 -1 10.7000 65.7000 TC 35 10.6698 65.6767 2 5 288
1964307N09072 1964 103 NI AS NOT_NAMED 1964-11-04 21:00:00 TS 10.7449 65.4932 main 1035 1030 P________PP___ IO151964 10.7499 65.5074 -1 10.7499 65.5074 TC 35 10.7347 65.4647 2 4 286
1964307N09072 1964 103 NI AS NOT_NAMED 1964-11-05 00:00:00 TS 10.8024 65.2818 main 1049 1049 O________OP___ jtwc_io IO151964 10.8000 65.3000 -1 10.8000 65.3000 TC 35 10.8073 65.2454 2 5 287
1964307N09072 1964 103 NI AS NOT_NAMED 1964-11-05 03:00:00 TS 10.8850 65.0150 main 1073 1073 P________PO___ IO151964 10.8775 65.0225 -1 10.8775 65.0225 TC 35 10.9000 65.0000 3 6 290
1964307N09072 1964 103 NI AS NOT_NAMED 1964-11-05 06:00:00 TS 11.0136 64.6999 main 1097 1089 O________OP___ jtwc_io IO151964 11.0000 64.7000 -1 11.0000 64.7000 TC 35 11.0407 64.6999 3 7 296
1964307N09072 1964 103 NI AS NOT_NAMED 1964-11-05 09:00:00 TS 11.2000 64.3576 main 1089 1042 P________PP___ IO151964 11.2000 64.3501 -1 11.2000 64.3501 TC 35 11.2001 64.3727 3 8 299
1964307N09072 1964 103 NI AS NOT_NAMED 1964-11-05 12:00:00 TS 11.3865 64.0114 main 1042 1008 O________OP___ jtwc_io IO151964 11.4000 64.0000 -1 11.4000 64.0000 TC 35 11.3594 64.0342 3 7 296
1964307N09072 1964 103 NI AS NOT_NAMED 1964-11-05 15:00:00 TS 11.5099 63.6999 main 1008 974 P________PO___ IO151964 11.5149 63.6999 -1 11.5149 63.6999 TC 35 11.5000 63.7000 3 7 289
1964307N09072 1964 103 NI AS NOT_NAMED 1964-11-05 18:00:00 TS 11.6016 63.3867 main 974 940 O________OP___ jtwc_io IO151964 11.6000 63.4000 -1 11.6000 63.4000 TC 35 11.6047 63.3603 3 7 287
1964307N09072 1964 103 NI AS NOT_NAMED 1964-11-05 21:00:00 TS 11.7059 63.0342 main 930 896 P________PP___ IO151964 11.7151 63.0351 -1 11.7151 63.0351 TC 35 11.6876 63.0324 3 7 285
1964307N09072 1964 103 NI AS NOT_NAMED 1964-11-06 00:00:00 TS 11.7839 62.7128 main 896 874 O________OP___ jtwc_io IO151964 11.8000 62.7000 -1 11.8000 62.7000 TC 35 11.7517 62.7384 3 6 280
1964307N09072 1964 103 NI AS NOT_NAMED 1964-11-06 03:00:00 TS 11.8050 62.4700 main 874 852 P________PO___ IO151964 11.8075 62.4549 -1 11.8075 62.4549 TC 35 11.8000 62.5000 3 4 274
1964307N09072 1964 103 NI AS NOT_NAMED 1964-11-06 06:00:00 TS 11.8131 62.3155 main 852 840 O________OP___ jtwc_io IO151964 11.8000 62.3000 -1 11.8000 62.3000 TC 35 11.8392 62.3465 3 2 282
1964307N09072 1964 103 NI AS NOT_NAMED 1964-11-06 09:00:00 TS 11.8549 62.2391 main 840 840 P________PP___ IO151964 11.8500 62.2350 -1 11.8500 62.2350 TC 35 11.8648 62.2474 3 1 305
1964307N09072 1964 103 NI AS NOT_NAMED 1964-11-06 12:00:00 TS 11.8943 62.1915 main 840 830 O________OP___ jtwc_io IO151964 11.9000 62.2000 -1 11.9000 62.2000 TC 35 11.8830 62.1746 3 1 289
1964307N09072 1964 103 NI AS NOT_NAMED 1964-11-06 15:00:00 TS 11.9000 62.1050 main 830 819 P________PO___ IO151964 11.9000 62.1075 -1 11.9000 62.1075 TC 35 11.9000 62.1000 3 2 275
1964307N09072 1964 103 NI AS NOT_NAMED 1964-11-06 18:00:00 TS 11.9096 62.0049 main 819 808 O________OP___ jtwc_io IO151964 11.9000 62.0000 -1 11.9000 62.0000 TC 35 11.9289 62.0147 3 2 286
1964307N09072 1964 103 NI AS NOT_NAMED 1964-11-06 21:00:00 TS 11.9524 61.9208 main 807 796 P________PP___ IO151964 11.9500 61.9225 -1 11.9500 61.9225 TC 35 11.9572 61.9175 3 2 292
1964307N09072 1964 103 NI AS NOT_NAMED 1964-11-07 00:00:00 TS 11.9940 61.7955 main 796 774 O________OP___ jtwc_io IO151964 12.0000 61.8000 -1 12.0000 61.8000 TC 35 11.9820 61.7866 3 3 279
1964307N09072 1964 103 NI AS NOT_NAMED 1964-11-07 03:00:00 TS 12.0050 61.5917 main 774 742 P________PO___ IO151964 12.0075 61.5875 -1 12.0075 61.5875 TC 35 12.0000 61.6000 3 5 271
1964307N09072 1964 103 NI AS NOT_NAMED 1964-11-07 06:00:00 TS 12.0051 61.3108 main 742 709 O________OP___ jtwc_io IO151964 12.0000 61.3000 -1 12.0000 61.3000 TC 35 12.0154 61.3325 3 6 270
1964307N09072 1964 103 NI AS NOT_NAMED 1964-11-07 09:00:00 TS 12.0076 60.9750 main 709 666 P________PP___ IO151964 12.0000 60.9575 -1 12.0000 60.9575 TC 35 12.0227 61.0101 3 7 270
1964307N09072 1964 103 NI AS NOT_NAMED 1964-11-07 12:00:00 TS 12.0062 60.6192 main 666 634 O________OP___ jtwc_io IO151964 12.0000 60.6000 -1 12.0000 60.6000 TC 35 12.0185 60.6575 3 7 270
1964307N09072 1964 103 NI AS NOT_NAMED 1964-11-07 15:00:00 TS 12.0049 60.3000 main 634 601 P________PO___ IO151964 12.0074 60.3000 -1 12.0074 60.3000 TC 35 12.0000 60.3000 3 6 269
1964307N09072 1964 103 NI AS NOT_NAMED 1964-11-07 18:00:00 TS 11.9989 59.9958 main 601 569 O________OP___ jtwc_io IO151964 12.0000 60.0000 -1 12.0000 60.0000 TC 35 11.9967 59.9874 3 6 267
1964307N09072 1964 103 NI AS NOT_NAMED 1964-11-07 21:00:00 TS 11.9682 59.6626 main 569 527 P________PP___ IO151964 11.9650 59.6575 -1 11.9650 59.6575 TC 35 11.9747 59.6729 3 7 262
1964307N09072 1964 103 NI AS NOT_NAMED 1964-11-08 00:00:00 TS 11.9051 59.3156 main 527 497 O________OP___ jtwc_io IO151964 11.9000 59.3000 -1 11.9000 59.3000 TC 35 11.9154 59.3469 3 7 258
1964307N09072 1964 103 NI AS NOT_NAMED 1964-11-08 03:00:00 TS 11.8250 58.9718 main 497 457 P________PO___ IO151964 11.8374 58.9576 -1 11.8374 58.9576 TC 35 11.8000 59.0000 3 7 251
1964307N09072 1964 103 NI AS NOT_NAMED 1964-11-08 06:00:00 TS 11.6664 58.6103 main 457 424 O________OP___ jtwc_io IO151964 11.7000 58.6000 -1 11.7000 58.6000 TC 35 11.6160 58.6257 3 8 241
1964307N09072 1964 103 NI AS NOT_NAMED 1964-11-08 09:00:00 TS 11.4110 58.2180 main 424 396 P________PP___ IO151964 11.4376 58.2097 -1 11.4376 58.2097 TC 30 11.3756 58.2290 3 10 234
1964307N09072 1964 103 NI AS NOT_NAMED 1964-11-08 12:00:00 TS 11.0987 57.8089 main 396 374 O________OP___ jtwc_io IO151964 11.1000 57.8000 -1 11.1000 57.8000 TC 25 11.0974 57.8179 3 10 233
1964307N09072 1964 103 NI AS NOT_NAMED 1964-11-08 15:00:00 NR 10.8000 57.4000 main 374 __________O___ IO151964 -1 TC 10.8000 57.4000 1 10 233

IBTrACS Databaseについて

本データベースは、米国NOAAが公開する1842年以降の世界の熱帯低気圧のベストトラックデータアーカイブInternational Best Track Archive for Climate Stewardship (IBTrACS)を、ウェブで閲覧しやすい形式に変換したものです。

最終更新日:2021-10-21